createdAt,value
2023-03-30T00:00:47.948Z,1.15
2023-03-30T00:03:34.326Z,0.80
2023-03-30T00:06:05.336Z,0.70
2023-03-30T00:08:42.792Z,0.98
2023-03-30T00:11:19.038Z,0.70
2023-03-30T00:13:51.029Z,0.80
2023-03-30T00:16:23.140Z,0.65
2023-03-30T00:18:51.170Z,0.68
2023-03-30T00:21:26.904Z,0.77
2023-03-30T00:24:02.122Z,0.90
2023-03-30T00:29:16.593Z,0.73
2023-03-30T00:31:47.077Z,0.85
2023-03-30T00:34:14.963Z,0.80
2023-03-30T00:39:13.151Z,0.50
2023-03-30T00:42:01.937Z,0.77
2023-03-30T00:45:00.705Z,0.57
2023-03-30T00:47:32.510Z,0.93
2023-03-30T00:50:02.848Z,1.20
2023-03-30T00:52:31.591Z,1.05
2023-03-30T00:55:15.114Z,1.30
2023-03-30T00:57:53.265Z,1.80
2023-03-30T01:00:32.104Z,1.73
2023-03-30T01:03:05.791Z,1.90
2023-03-30T01:06:01.286Z,1.83
2023-03-30T01:09:07.039Z,1.00
2023-03-30T01:11:51.992Z,1.55
2023-03-30T01:18:20.371Z,2.57
2023-03-30T01:21:32.055Z,2.10
2023-03-30T01:27:46.342Z,1.08
2023-03-30T01:34:20.144Z,1.47
2023-03-30T01:37:36.389Z,1.90
2023-03-30T01:40:28.146Z,1.67
2023-03-30T01:43:22.293Z,1.93
2023-03-30T01:46:40.883Z,1.55
2023-03-30T01:49:45.858Z,1.30
2023-03-30T01:53:16.718Z,1.57
2023-03-30T01:56:20.856Z,1.07
2023-03-30T01:59:09.536Z,0.98
2023-03-30T02:08:05.123Z,1.10
2023-03-30T02:14:15.612Z,1.13
2023-03-30T02:21:11.873Z,0.87
2023-03-30T02:24:22.542Z,0.83
2023-03-30T02:30:43.662Z,1.00
2023-03-30T02:33:49.423Z,1.07
2023-03-30T02:35:45.524Z,0.90
2023-03-30T02:41:47.483Z,0.57
2023-03-30T02:48:00.217Z,1.20
2023-03-30T02:51:06.647Z,0.70
2023-03-30T02:54:11.006Z,0.83
2023-03-30T03:04:01.043Z,0.50
2023-03-30T03:07:21.610Z,0.97
2023-03-30T03:13:00.587Z,0.97
2023-03-30T03:16:24.754Z,0.57
2023-03-30T03:18:52.650Z,0.80
2023-03-30T03:24:17.509Z,0.88
2023-03-30T03:27:20.158Z,0.70
2023-03-30T03:29:51.518Z,0.90
2023-03-30T03:42:14.242Z,0.73
2023-03-30T03:44:41.388Z,1.33
2023-03-30T03:47:08.385Z,1.63
2023-03-30T03:49:38.815Z,1.57
2023-03-30T03:52:15.901Z,1.13
2023-03-30T04:00:23.925Z,1.10
2023-03-30T04:03:00.111Z,1.00
2023-03-30T04:05:26.938Z,1.50
2023-03-30T04:07:56.047Z,1.37
2023-03-30T04:10:23.667Z,1.17
2023-03-30T04:12:52.722Z,1.08
2023-03-30T04:15:19.441Z,0.73
2023-03-30T04:17:50.041Z,1.20
2023-03-30T04:20:17.513Z,1.60
2023-03-30T04:22:52.548Z,1.10
2023-03-30T04:25:22.742Z,1.47
2023-03-30T04:27:57.171Z,0.90
2023-03-30T04:30:24.691Z,1.10
2023-03-30T04:33:29.617Z,1.20
2023-03-30T04:36:13.916Z,1.03
2023-03-30T04:39:00.871Z,1.77
2023-03-30T04:41:37.977Z,1.42
2023-03-30T04:44:15.723Z,1.10
2023-03-30T04:49:09.168Z,1.30
2023-03-30T04:51:37.477Z,1.57
2023-03-30T04:54:11.945Z,1.60
2023-03-30T04:57:01.175Z,1.43
2023-03-30T04:59:28.620Z,1.43
2023-03-30T05:05:25.097Z,1.37
2023-03-30T05:07:57.130Z,1.50
2023-03-30T05:10:26.667Z,1.53
2023-03-30T05:12:56.165Z,1.73
2023-03-30T05:15:31.347Z,1.92
2023-03-30T05:18:01.778Z,1.60
2023-03-30T05:20:51.657Z,1.90
2023-03-30T05:23:45.331Z,1.38
2023-03-30T05:26:38.267Z,1.33
2023-03-30T05:29:13.316Z,2.20
2023-03-30T05:34:48.929Z,2.72
2023-03-30T05:37:54.054Z,2.60
2023-03-30T05:40:42.436Z,2.05
2023-03-30T05:43:51.201Z,2.47
2023-03-30T05:46:28.364Z,2.13
2023-03-30T05:48:58.096Z,4.05
2023-03-30T05:51:25.558Z,6.97
2023-03-30T05:53:52.554Z,7.00
2023-03-30T05:56:22.253Z,3.60
2023-03-30T05:58:58.155Z,4.05
2023-03-30T06:04:24.320Z,3.08
2023-03-30T06:06:52.993Z,3.10
2023-03-30T06:09:27.472Z,2.97
2023-03-30T06:11:57.278Z,2.72
2023-03-30T06:17:20.035Z,2.88
2023-03-30T06:21:29.689Z,2.85
2023-03-30T06:29:02.545Z,6.83
2023-03-30T06:31:29.587Z,5.60
2023-03-30T06:33:56.941Z,5.88
2023-03-30T06:37:05.525Z,3.75
2023-03-30T06:40:17.925Z,3.20
2023-03-30T06:43:05.529Z,2.83
2023-03-30T06:49:05.917Z,2.55
2023-03-30T06:52:27.701Z,2.85
2023-03-30T06:55:27.306Z,2.95
2023-03-30T06:58:04.256Z,2.25
2023-03-30T07:01:23.183Z,2.70
2023-03-30T07:03:59.514Z,1.70
2023-03-30T07:07:16.827Z,1.80
2023-03-30T07:12:52.908Z,1.83
2023-03-30T07:15:29.413Z,3.92
2023-03-30T07:18:22.852Z,2.05
2023-03-30T07:24:21.484Z,1.42
2023-03-30T07:29:42.221Z,1.23
2023-03-30T07:32:22.982Z,1.33
2023-03-30T07:46:54.377Z,1.83
2023-03-30T07:49:29.143Z,4.85
2023-03-30T07:52:10.537Z,5.95
2023-03-30T07:54:44.010Z,7.85
2023-03-30T07:57:12.770Z,7.28
2023-03-30T07:59:43.435Z,3.85
2023-03-30T08:02:13.519Z,2.60
2023-03-30T08:04:44.042Z,3.60
2023-03-30T08:07:12.879Z,2.88
2023-03-30T08:09:44.460Z,1.60
2023-03-30T08:12:11.422Z,2.17
2023-03-30T08:14:41.728Z,1.73
2023-03-30T08:17:21.911Z,1.35
2023-03-30T08:19:49.364Z,2.65
2023-03-30T08:22:18.640Z,2.35
2023-03-30T08:24:46.656Z,2.42
2023-03-30T08:29:45.255Z,2.28
2023-03-30T08:32:31.065Z,1.80
2023-03-30T08:36:00.432Z,1.65
2023-03-30T08:38:27.153Z,0.88
2023-03-30T08:40:58.139Z,0.93
2023-03-30T08:43:25.605Z,0.80
2023-03-30T08:46:03.704Z,0.57
2023-03-30T08:48:49.277Z,0.80
2023-03-30T08:51:22.670Z,0.65
2023-03-30T08:54:15.859Z,0.55
2023-03-30T08:57:08.647Z,0.95
2023-03-30T09:00:03.744Z,0.50
2023-03-30T09:02:53.850Z,0.80
2023-03-30T09:05:37.301Z,1.20
2023-03-30T09:11:16.496Z,2.22
2023-03-30T09:14:40.600Z,2.15
2023-03-30T09:16:48.695Z,1.48
2023-03-30T09:19:28.210Z,0.77
2023-03-30T09:22:15.311Z,0.80
2023-03-30T09:24:43.212Z,2.00
2023-03-30T09:27:45.068Z,1.58
2023-03-30T09:30:26.600Z,1.23
2023-03-30T09:33:15.418Z,1.50
2023-03-30T09:35:49.522Z,2.58
2023-03-30T09:38:25.885Z,1.80
2023-03-30T09:41:41.088Z,1.70
2023-03-30T09:44:46.025Z,1.10
2023-03-30T09:47:40.711Z,1.00
2023-03-30T09:50:32.208Z,1.00
2023-03-30T09:53:05.813Z,1.27
2023-03-30T09:55:38.542Z,1.27
2023-03-30T09:58:29.876Z,1.23
2023-03-30T10:01:16.999Z,1.10
2023-03-30T10:03:48.274Z,1.02
2023-03-30T10:06:20.974Z,0.77
2023-03-30T10:09:11.494Z,1.10
2023-03-30T10:11:56.198Z,0.70
2023-03-30T10:14:34.611Z,0.55
2023-03-30T10:17:23.944Z,0.50
2023-03-30T10:20:19.787Z,3.38
2023-03-30T10:23:16.513Z,2.42
2023-03-30T10:25:54.217Z,2.15
2023-03-30T10:28:29.698Z,1.30
2023-03-30T10:31:05.704Z,0.90
2023-03-30T10:33:40.316Z,1.40
2023-03-30T10:36:21.182Z,1.00
2023-03-30T10:38:52.233Z,0.50
2023-03-30T10:41:25.118Z,1.10
2023-03-30T10:46:47.812Z,0.93
2023-03-30T10:50:00.889Z,0.80
2023-03-30T10:52:58.541Z,0.70
2023-03-30T10:56:10.210Z,0.40
2023-03-30T10:59:44.835Z,0.60
2023-03-30T11:02:50.097Z,0.43
2023-03-30T11:05:23.288Z,0.73
2023-03-30T11:08:06.160Z,0.70
2023-03-30T11:10:57.800Z,0.95
2023-03-30T11:13:48.735Z,0.77
2023-03-30T11:16:43.128Z,0.90
2023-03-30T11:19:53.060Z,0.60
2023-03-30T11:22:43.056Z,0.75
2023-03-30T11:25:23.626Z,0.60
2023-03-30T11:27:57.825Z,0.38
2023-03-30T11:30:37.416Z,0.60
2023-03-30T11:33:30.655Z,0.57
2023-03-30T11:36:34.794Z,0.40
2023-03-30T11:39:05.225Z,0.57
2023-03-30T11:42:20.115Z,0.75
2023-03-30T11:44:48.500Z,0.65
2023-03-30T11:51:17.301Z,0.82
2023-03-30T11:53:59.452Z,1.15
2023-03-30T11:56:41.457Z,0.40
2023-03-30T11:59:35.092Z,0.90
2023-03-30T12:02:21.621Z,0.80
2023-03-30T12:04:56.999Z,0.63
2023-03-30T12:07:44.646Z,0.80
2023-03-30T12:13:17.266Z,0.70
2023-03-30T12:16:13.635Z,0.50
2023-03-30T12:19:25.851Z,0.50
2023-03-30T12:22:19.254Z,0.60
2023-03-30T12:25:04.444Z,0.55
2023-03-30T12:27:52.591Z,0.60
2023-03-30T12:30:58.291Z,1.00
2023-03-30T12:33:58.922Z,1.70
2023-03-30T12:37:11.969Z,0.40
2023-03-30T12:39:58.593Z,0.40
2023-03-30T12:42:39.675Z,1.00
2023-03-30T12:45:26.517Z,0.70
2023-03-30T12:48:20.240Z,0.60
2023-03-30T12:51:08.279Z,0.50
2023-03-30T12:54:00.285Z,0.35
2023-03-30T12:57:09.079Z,0.50
2023-03-30T13:00:30.995Z,0.88
2023-03-30T13:03:33.646Z,0.50
2023-03-30T13:06:03.609Z,0.88
2023-03-30T13:09:04.609Z,1.00
2023-03-30T13:11:54.452Z,1.00
2023-03-30T13:14:27.695Z,0.60
2023-03-30T13:16:54.634Z,0.47
2023-03-30T13:19:28.574Z,0.67
2023-03-30T13:22:04.447Z,0.80
2023-03-30T13:24:35.938Z,0.60
2023-03-30T13:27:18.783Z,1.05
2023-03-30T13:29:59.179Z,0.43
2023-03-30T13:32:54.570Z,0.52
2023-03-30T13:36:20.708Z,1.33
2023-03-30T13:39:23.867Z,0.52
2023-03-30T13:45:30.908Z,17.63
2023-03-30T13:51:28.201Z,9.38
2023-03-30T13:54:29.382Z,4.25
2023-03-30T13:57:31.227Z,2.00
2023-03-30T14:00:28.844Z,9.30
2023-03-30T14:02:56.439Z,4.70
2023-03-30T14:05:45.732Z,1.92
2023-03-30T14:08:13.952Z,1.67
2023-03-30T14:10:56.389Z,0.50
2023-03-30T14:13:36.701Z,0.63
2023-03-30T14:16:05.274Z,0.47
2023-03-30T14:18:43.079Z,0.63
2023-03-30T14:21:16.650Z,3.05
2023-03-30T14:23:55.839Z,1.40
2023-03-30T14:26:26.455Z,2.33
2023-03-30T14:29:03.523Z,2.60
2023-03-30T14:31:40.661Z,3.88
2023-03-30T14:34:26.815Z,4.55
2023-03-30T14:37:27.433Z,1.50
2023-03-30T14:39:59.132Z,1.55
2023-03-30T14:42:38.012Z,0.90
2023-03-30T14:45:11.005Z,1.25
2023-03-30T14:48:15.342Z,1.00
2023-03-30T14:50:35.967Z,1.60
2023-03-30T14:53:05.505Z,3.88
2023-03-30T14:55:35.705Z,2.20
2023-03-30T14:58:17.024Z,2.08
2023-03-30T15:00:47.161Z,0.82
2023-03-30T15:03:26.693Z,1.05
2023-03-30T15:07:01.622Z,0.50
2023-03-30T15:09:40.880Z,2.55
2023-03-30T15:12:11.052Z,2.85
2023-03-30T15:14:40.621Z,2.15
2023-03-30T15:17:27.858Z,1.15
2023-03-30T15:19:59.006Z,1.05
2023-03-30T15:22:50.732Z,0.90
2023-03-30T15:25:24.987Z,0.50
2023-03-30T15:28:21.673Z,0.60
2023-03-30T15:30:54.239Z,0.50
2023-03-30T15:33:31.549Z,0.55
2023-03-30T15:36:08.011Z,0.47
2023-03-30T15:38:45.090Z,0.47
2023-03-30T15:41:20.962Z,0.40
2023-03-30T15:44:11.936Z,0.68
2023-03-30T15:46:41.749Z,1.27
2023-03-30T15:49:14.258Z,0.50
2023-03-30T15:51:50.274Z,0.50
2023-03-30T15:54:30.730Z,0.40
2023-03-30T15:57:22.027Z,0.70
2023-03-30T16:00:05.610Z,0.70
2023-03-30T16:02:37.050Z,0.50
2023-03-30T16:05:38.811Z,0.57
2023-03-30T16:08:09.601Z,0.57
2023-03-30T16:10:39.142Z,0.55
2023-03-30T16:13:09.516Z,1.13
2023-03-30T16:15:38.273Z,0.90
2023-03-30T16:18:05.256Z,2.90
2023-03-30T16:20:33.671Z,3.07
2023-03-30T16:23:09.736Z,3.33
2023-03-30T16:25:44.623Z,5.38
2023-03-30T16:28:18.326Z,4.05
2023-03-30T16:30:48.088Z,4.05
2023-03-30T16:33:18.127Z,2.25
2023-03-30T16:35:48.454Z,1.38
2023-03-30T16:38:39.626Z,1.33
2023-03-30T16:41:10.485Z,2.03
2023-03-30T16:43:38.016Z,1.92
2023-03-30T16:46:06.270Z,2.22
2023-03-30T16:48:33.971Z,3.95
2023-03-30T16:53:58.161Z,2.20
2023-03-30T16:56:32.426Z,1.45
2023-03-30T16:59:07.650Z,3.17
2023-03-30T17:01:34.734Z,3.40
2023-03-30T17:04:03.619Z,3.20
2023-03-30T17:06:40.062Z,2.30
2023-03-30T17:09:17.215Z,2.22
2023-03-30T17:14:47.746Z,1.50
2023-03-30T17:17:47.952Z,1.48
2023-03-30T17:21:41.269Z,0.93
2023-03-30T17:24:13.772Z,1.40
2023-03-30T17:29:53.508Z,0.88
2023-03-30T17:32:33.149Z,1.08
2023-03-30T17:35:23.104Z,1.00
2023-03-30T17:38:17.211Z,0.77
2023-03-30T17:41:09.036Z,1.60
2023-03-30T17:43:54.460Z,1.48
2023-03-30T17:46:25.102Z,1.40
2023-03-30T17:49:54.655Z,1.05
2023-03-30T17:56:01.125Z,1.00
2023-03-30T17:59:04.360Z,1.05
2023-03-30T18:01:38.826Z,1.70
2023-03-30T18:04:28.520Z,2.67
2023-03-30T18:07:06.877Z,1.80
2023-03-30T18:14:11.185Z,2.80
2023-03-30T18:15:59.443Z,1.90
2023-03-30T18:18:30.361Z,2.63
2023-03-30T18:21:36.916Z,2.35
2023-03-30T18:24:27.314Z,4.35
2023-03-30T18:30:13.789Z,3.70
2023-03-30T18:32:57.337Z,2.25
2023-03-30T18:35:47.770Z,1.70
2023-03-30T18:41:46.945Z,2.95
2023-03-30T18:44:20.415Z,2.60
2023-03-30T18:46:53.371Z,2.53
2023-03-30T18:49:33.580Z,2.58
2023-03-30T18:52:20.749Z,1.88
2023-03-30T18:55:01.609Z,3.70
2023-03-30T18:57:41.505Z,2.00
2023-03-30T19:00:34.049Z,2.17
2023-03-30T19:03:06.188Z,2.72
2023-03-30T19:06:00.032Z,2.28
2023-03-30T19:08:34.462Z,2.13
2023-03-30T19:11:05.345Z,1.50
2023-03-30T19:13:41.638Z,2.30
2023-03-30T19:16:19.343Z,1.98
2023-03-30T19:18:59.120Z,2.55
2023-03-30T19:21:35.913Z,2.78
2023-03-30T19:24:18.378Z,2.70
2023-03-30T19:28:02.513Z,3.42
2023-03-30T19:30:39.575Z,2.85
2023-03-30T19:33:13.592Z,2.95
2023-03-30T19:38:51.543Z,3.15
2023-03-30T19:42:15.153Z,3.45
2023-03-30T19:48:13.704Z,3.33
2023-03-30T19:51:17.061Z,3.55
2023-03-30T19:53:59.569Z,3.10
2023-03-30T19:56:46.482Z,2.80
2023-03-30T19:59:35.280Z,3.25
2023-03-30T20:02:12.383Z,3.40
2023-03-30T20:05:13.671Z,3.33
2023-03-30T20:08:23.129Z,2.55
2023-03-30T20:11:30.309Z,2.45
2023-03-30T20:14:06.901Z,1.95
2023-03-30T20:16:54.439Z,2.95
2023-03-30T20:19:45.426Z,3.08
2023-03-30T20:22:35.507Z,2.38
2023-03-30T20:28:15.160Z,2.58
2023-03-30T20:30:47.272Z,2.33
2023-03-30T20:34:04.554Z,2.70
2023-03-30T20:39:21.135Z,2.17
2023-03-30T20:42:08.368Z,2.50
2023-03-30T20:44:54.274Z,2.35
2023-03-30T20:47:35.814Z,2.40
2023-03-30T20:50:18.619Z,2.95
2023-03-30T20:53:10.793Z,2.97
2023-03-30T20:55:57.998Z,3.22
2023-03-30T21:01:39.588Z,2.38
2023-03-30T21:04:16.901Z,2.50
2023-03-30T21:06:56.235Z,3.40
2023-03-30T21:09:32.963Z,2.75
2023-03-30T21:12:10.288Z,2.35
2023-03-30T21:14:38.592Z,1.65
2023-03-30T21:17:31.806Z,1.40
2023-03-30T21:20:01.347Z,1.52
2023-03-30T21:22:57.944Z,1.38
2023-03-30T21:25:28.619Z,2.17
2023-03-30T21:31:04.783Z,3.05
2023-03-30T21:34:11.739Z,2.35
2023-03-30T21:36:47.982Z,1.65
2023-03-30T21:42:25.811Z,1.73
2023-03-30T21:45:02.902Z,2.33
2023-03-30T21:47:35.942Z,2.47
2023-03-30T21:50:14.313Z,2.88
2023-03-30T21:52:48.823Z,3.08
2023-03-30T21:55:16.918Z,3.03
2023-03-30T21:58:54.969Z,2.05
2023-03-30T22:01:04.949Z,2.20
2023-03-30T22:03:49.356Z,1.85
2023-03-30T22:09:09.626Z,2.40
2023-03-30T22:14:39.035Z,2.05
2023-03-30T22:17:36.972Z,2.28
2023-03-30T22:20:35.296Z,2.03
2023-03-30T22:23:17.039Z,2.88
2023-03-30T22:28:51.303Z,3.40
2023-03-30T22:31:22.025Z,3.33
2023-03-30T22:34:05.865Z,3.03
2023-03-30T22:37:00.100Z,2.80
2023-03-30T22:39:26.399Z,8.73
2023-03-30T22:42:41.437Z,5.93
2023-03-30T22:45:13.661Z,3.78
2023-03-30T22:47:44.120Z,3.30
2023-03-30T22:50:15.106Z,3.03
2023-03-30T22:53:32.922Z,3.13
2023-03-30T22:55:51.334Z,3.45
2023-03-30T22:58:29.458Z,2.80
2023-03-30T23:01:06.628Z,2.63
2023-03-30T23:03:34.489Z,3.38
2023-03-30T23:06:01.873Z,2.85
2023-03-30T23:08:44.469Z,2.30
2023-03-30T23:11:14.706Z,2.00
2023-03-30T23:13:46.145Z,1.33
2023-03-30T23:16:13.050Z,2.20
2023-03-30T23:19:13.267Z,1.90
2023-03-30T23:24:54.859Z,2.85
2023-03-30T23:27:43.349Z,2.35
2023-03-30T23:30:11.825Z,2.00
2023-03-30T23:32:48.007Z,2.20
2023-03-30T23:35:21.021Z,2.25
2023-03-30T23:37:52.990Z,2.20
2023-03-30T23:41:25.043Z,1.70
2023-03-30T23:46:16.081Z,1.25
2023-03-30T23:49:26.763Z,1.27
2023-03-30T23:52:03.685Z,1.10
2023-03-30T23:54:56.723Z,0.93
2023-03-30T23:58:37.315Z,1.45
